createdAt,value
2017-10-05T00:00:14.701Z,94863.16
2017-10-05T00:02:43.054Z,94858.72
2017-10-05T00:05:11.398Z,94846.75
2017-10-05T00:07:39.757Z,94866.54
2017-10-05T00:10:08.102Z,94859.56
2017-10-05T00:12:36.482Z,94846.61
2017-10-05T00:15:04.827Z,94846.02
2017-10-05T00:17:33.171Z,94842.91
2017-10-05T00:20:01.518Z,94840.19
2017-10-05T00:22:29.856Z,94828.62
2017-10-05T00:24:58.247Z,94821.25
2017-10-05T00:27:26.606Z,94823.73
2017-10-05T00:32:28.578Z,94822.73
2017-10-05T00:34:56.963Z,94810.67
2017-10-05T00:37:25.303Z,94807.97
2017-10-05T00:39:53.647Z,94820.66
2017-10-05T00:42:21.990Z,94818.64
2017-10-05T00:44:50.340Z,94808.35
2017-10-05T00:47:18.718Z,94790.58
2017-10-05T00:49:47.058Z,94773.16
2017-10-05T00:52:15.427Z,94768.49
2017-10-05T00:54:43.773Z,94750.99
2017-10-05T00:57:12.114Z,94753.58
2017-10-05T00:59:40.492Z,94754.03
2017-10-05T01:02:08.826Z,94742.94
2017-10-05T01:04:37.171Z,94743.23
2017-10-05T01:07:05.506Z,94744.32
2017-10-05T01:09:33.863Z,94734.78
2017-10-05T01:12:02.207Z,94719.91
2017-10-05T01:14:30.551Z,94712.88
2017-10-05T01:16:58.895Z,94705.70
2017-10-05T01:19:27.234Z,94690.84
2017-10-05T01:21:55.583Z,94671.15
2017-10-05T01:24:23.927Z,94671.67
2017-10-05T01:26:52.295Z,94674.39
2017-10-05T01:29:20.811Z,94659.46
2017-10-05T01:31:49.209Z,94646.00
2017-10-05T01:34:17.586Z,94648.99
2017-10-05T01:36:46.063Z,94632.25
2017-10-05T01:39:14.403Z,94622.67
2017-10-05T01:41:42.763Z,94620.10
2017-10-05T01:44:11.883Z,94626.45
2017-10-05T01:46:40.214Z,94606.73
2017-10-05T01:49:08.563Z,94614.38
2017-10-05T01:51:36.928Z,94589.36
2017-10-05T01:54:05.307Z,94587.69
2017-10-05T01:56:33.651Z,94578.61
2017-10-05T01:59:02.003Z,94576.76
2017-10-05T02:01:30.364Z,94581.32
2017-10-05T02:03:58.710Z,94548.63
2017-10-05T02:06:27.082Z,94558.48
2017-10-05T02:08:55.474Z,94549.94
2017-10-05T02:11:23.826Z,94546.85
2017-10-05T02:13:52.169Z,94542.14
2017-10-05T02:16:20.802Z,94535.82
2017-10-05T02:18:49.152Z,94521.67
2017-10-05T02:21:17.495Z,94524.82
2017-10-05T02:23:45.846Z,94509.05
2017-10-05T02:26:14.218Z,94510.12
2017-10-05T02:28:42.554Z,94511.92
2017-10-05T02:31:10.896Z,94493.33
2017-10-05T02:33:39.239Z,94492.10
2017-10-05T02:36:07.582Z,94475.87
2017-10-05T02:38:35.920Z,94477.42
2017-10-05T02:41:04.267Z,94476.83
2017-10-05T02:43:32.638Z,94474.60
2017-10-05T02:46:01.150Z,94467.47
2017-10-05T02:48:29.486Z,94460.68
2017-10-05T02:50:57.822Z,94454.14
2017-10-05T02:53:26.171Z,94456.70
2017-10-05T02:55:54.504Z,94438.46
2017-10-05T02:58:22.870Z,94435.48
2017-10-05T03:00:51.211Z,94423.91
2017-10-05T03:03:19.567Z,94421.13
2017-10-05T03:05:47.902Z,94419.14
2017-10-05T03:08:16.238Z,94403.52
2017-10-05T03:10:44.574Z,94408.97
2017-10-05T03:13:13.226Z,94396.99
2017-10-05T03:15:41.555Z,94385.01
2017-10-05T03:18:09.919Z,94371.41
2017-10-05T03:20:38.250Z,94358.52
2017-10-05T03:23:06.595Z,94359.73
2017-10-05T03:25:34.935Z,94350.38
2017-10-05T03:28:03.266Z,94332.55
2017-10-05T03:30:31.631Z,94343.52
2017-10-05T03:33:00.067Z,94338.68
2017-10-05T03:35:28.478Z,94338.58
2017-10-05T03:37:56.838Z,94333.17
2017-10-05T03:40:25.179Z,94334.12
2017-10-05T03:42:53.519Z,94321.09
2017-10-05T03:45:21.848Z,94335.84
2017-10-05T03:47:50.194Z,94321.34
2017-10-05T03:50:18.531Z,94310.20
2017-10-05T03:52:46.883Z,94317.64
2017-10-05T03:55:15.219Z,94312.82
2017-10-05T03:57:43.556Z,94302.73
2017-10-05T04:00:11.916Z,94296.70
2017-10-05T04:02:40.263Z,94290.41
2017-10-05T04:05:08.606Z,94276.03
2017-10-05T04:07:36.947Z,94280.59
2017-10-05T04:10:05.288Z,94272.49
2017-10-05T04:12:33.630Z,94275.47
2017-10-05T04:15:01.985Z,94286.65
2017-10-05T04:17:30.318Z,94278.64
2017-10-05T04:19:58.666Z,94274.47
2017-10-05T04:22:27.007Z,94254.97
2017-10-05T04:24:55.347Z,94259.33
2017-10-05T04:27:23.694Z,94245.16
2017-10-05T04:29:52.039Z,94242.05
2017-10-05T04:32:20.427Z,94236.09
2017-10-05T04:34:48.778Z,94226.00
2017-10-05T04:37:17.134Z,94208.22
2017-10-05T04:39:45.478Z,94217.03
2017-10-05T04:42:13.809Z,94224.07
2017-10-05T04:44:42.144Z,94226.81
2017-10-05T04:47:10.521Z,94217.73
2017-10-05T04:49:38.870Z,94219.60
2017-10-05T04:52:07.228Z,94218.37
2017-10-05T04:54:35.563Z,94218.38
2017-10-05T04:57:03.902Z,94215.95
2017-10-05T04:59:32.276Z,94219.89
2017-10-05T05:02:00.615Z,94208.77
2017-10-05T05:04:28.951Z,94196.20
2017-10-05T05:06:57.299Z,94195.79
2017-10-05T05:09:25.638Z,94196.31
2017-10-05T05:11:53.979Z,94187.77
2017-10-05T05:14:22.332Z,94180.06
2017-10-05T05:16:50.694Z,94180.05
2017-10-05T05:19:19.039Z,94177.75
2017-10-05T05:21:47.378Z,94175.52
2017-10-05T05:24:15.719Z,94149.83
2017-10-05T05:26:44.056Z,94144.50
2017-10-05T05:29:12.653Z,94134.58
2017-10-05T05:31:41.072Z,94132.52
2017-10-05T05:34:09.503Z,94123.59
2017-10-05T05:36:37.867Z,94121.84
2017-10-05T05:39:06.206Z,94117.36
2017-10-05T05:41:34.546Z,94122.23
2017-10-05T05:44:03.147Z,94113.69
2017-10-05T05:46:31.510Z,94110.49
2017-10-05T05:48:59.847Z,94085.41
2017-10-05T05:51:28.187Z,94083.16
2017-10-05T05:53:56.522Z,94100.85
2017-10-05T05:56:24.863Z,94084.44
2017-10-05T05:58:53.196Z,94076.77
2017-10-05T06:01:21.534Z,94064.26
2017-10-05T06:03:49.866Z,94073.38
2017-10-05T06:08:54.448Z,94044.88
2017-10-05T06:11:22.782Z,94039.34
2017-10-05T06:13:51.133Z,94046.27
2017-10-05T06:16:19.466Z,94039.11
2017-10-05T06:18:47.834Z,94038.41
2017-10-05T06:21:16.197Z,94037.79
2017-10-05T06:23:44.547Z,94014.67
2017-10-05T06:26:12.930Z,94009.41
2017-10-05T06:28:41.266Z,94020.86
2017-10-05T06:31:09.602Z,94004.11
2017-10-05T06:33:37.945Z,94005.77
2017-10-05T06:36:06.274Z,93998.76
2017-10-05T06:38:34.634Z,94008.09
2017-10-05T06:41:02.974Z,93994.37
2017-10-05T06:43:31.318Z,93985.52
2017-10-05T06:45:59.657Z,93977.92
2017-10-05T06:48:27.998Z,93981.63
2017-10-05T06:50:56.342Z,93965.47
2017-10-05T06:53:24.686Z,93998.89
2017-10-05T06:55:53.059Z,93957.56
2017-10-05T06:58:21.386Z,93960.52
2017-10-05T07:00:49.737Z,93969.40
2017-10-05T07:03:18.095Z,93973.88
2017-10-05T07:05:46.430Z,93953.16
2017-10-05T07:08:14.776Z,93964.50
2017-10-05T07:10:43.106Z,93971.09
2017-10-05T07:13:11.443Z,93952.58
2017-10-05T07:15:39.783Z,93957.45
2017-10-05T07:18:08.121Z,93957.03
2017-10-05T07:20:36.484Z,93958.78
2017-10-05T07:23:04.813Z,93946.88
2017-10-05T07:25:33.171Z,93958.88
2017-10-05T07:28:01.511Z,93934.36
2017-10-05T07:30:29.846Z,93938.67
2017-10-05T07:32:58.376Z,93930.27
2017-10-05T07:35:26.715Z,93943.38
2017-10-05T07:37:55.046Z,93966.86
2017-10-05T07:40:23.387Z,93948.45
2017-10-05T07:42:51.735Z,93947.80
2017-10-05T07:45:20.079Z,93938.59
2017-10-05T07:47:48.410Z,93941.25
2017-10-05T07:50:17.618Z,93937.76
2017-10-05T07:52:45.982Z,93928.05
2017-10-05T07:55:14.350Z,93927.67
2017-10-05T07:57:42.694Z,93910.54
2017-10-05T08:00:11.483Z,93911.62
2017-10-05T08:02:39.853Z,93919.31
2017-10-05T08:05:08.266Z,93902.98
2017-10-05T08:07:36.628Z,93908.74
2017-10-05T08:10:05.014Z,93917.56
2017-10-05T08:12:33.389Z,93897.34
2017-10-05T08:15:01.832Z,93894.00
2017-10-05T08:17:30.172Z,93900.42
2017-10-05T08:19:58.531Z,93895.37
2017-10-05T08:22:26.903Z,93887.23
2017-10-05T08:24:55.243Z,93903.30
2017-10-05T08:27:23.609Z,93881.19
2017-10-05T08:29:52.142Z,93866.06
2017-10-05T08:32:20.490Z,93875.27
2017-10-05T08:34:48.824Z,93875.23
2017-10-05T08:37:17.212Z,93851.88
2017-10-05T08:39:45.605Z,93860.98
2017-10-05T08:42:13.950Z,93860.18
2017-10-05T08:44:42.318Z,93854.81
2017-10-05T08:47:10.662Z,93850.87
2017-10-05T08:49:39.022Z,93842.64
2017-10-05T08:52:07.363Z,93823.18
2017-10-05T08:54:35.734Z,93835.38
2017-10-05T08:57:04.089Z,93832.93
2017-10-05T08:59:32.506Z,93841.31
2017-10-05T09:02:00.863Z,93831.55
2017-10-05T09:04:29.199Z,93834.11
2017-10-05T09:06:57.563Z,93820.84
2017-10-05T09:09:25.939Z,93822.89
2017-10-05T09:11:54.311Z,93820.36
2017-10-05T09:14:22.674Z,93820.15
2017-10-05T09:16:51.015Z,93835.41
2017-10-05T09:19:19.383Z,93824.03
2017-10-05T09:21:47.729Z,93825.22
2017-10-05T09:24:16.057Z,93833.06
2017-10-05T09:26:44.426Z,93822.89
2017-10-05T09:29:12.802Z,93818.94
2017-10-05T09:31:41.138Z,93824.98
2017-10-05T09:34:09.475Z,93824.77
2017-10-05T09:36:37.838Z,93815.95
2017-10-05T09:39:06.179Z,93819.92
2017-10-05T09:41:34.550Z,93817.84
2017-10-05T09:44:03.147Z,93826.47
2017-10-05T09:46:31.478Z,93812.15
2017-10-05T09:48:59.859Z,93808.67
2017-10-05T09:51:28.220Z,93814.69
2017-10-05T09:53:56.555Z,93818.15
2017-10-05T09:56:24.915Z,93813.45
2017-10-05T09:58:53.255Z,93823.26
2017-10-05T10:01:21.643Z,93804.20
2017-10-05T10:03:49.976Z,93783.13
2017-10-05T10:06:18.320Z,93808.30
2017-10-05T10:08:46.683Z,93797.73
2017-10-05T10:11:15.030Z,93784.27
2017-10-05T10:13:43.397Z,93799.58
2017-10-05T10:16:11.735Z,93787.70
2017-10-05T10:18:40.105Z,93804.75
2017-10-05T10:21:08.442Z,93761.03
2017-10-05T10:23:36.863Z,93786.23
2017-10-05T10:26:05.202Z,93783.25
2017-10-05T10:28:33.529Z,93773.13
2017-10-05T10:31:01.899Z,93783.98
2017-10-05T10:33:30.263Z,93782.30
2017-10-05T10:35:58.633Z,93777.81
2017-10-05T10:38:27.002Z,93776.27
2017-10-05T10:40:55.338Z,93784.94
2017-10-05T10:43:23.674Z,93796.31
2017-10-05T10:45:52.050Z,93781.53
2017-10-05T10:48:20.386Z,93796.55
2017-10-05T10:50:48.765Z,93805.84
2017-10-05T10:53:17.118Z,93792.50
2017-10-05T10:55:45.621Z,93799.17
2017-10-05T10:58:14.139Z,93801.36
2017-10-05T11:00:42.757Z,93814.25
2017-10-05T11:03:11.118Z,93829.59
2017-10-05T11:05:39.447Z,93838.59
2017-10-05T11:08:07.793Z,93844.81
2017-10-05T11:10:36.461Z,93852.31
2017-10-05T11:13:04.851Z,93867.48
2017-10-05T11:15:33.183Z,93879.20
2017-10-05T11:18:01.563Z,93890.36
2017-10-05T11:20:29.918Z,93927.09
2017-10-05T11:22:58.324Z,93910.54
2017-10-05T11:25:26.663Z,93898.27
2017-10-05T11:27:55.008Z,93908.27
2017-10-05T11:30:23.354Z,93965.16
2017-10-05T11:32:51.703Z,93924.64
2017-10-05T11:35:20.080Z,93957.91
2017-10-05T11:37:48.418Z,93948.30
2017-10-05T11:40:16.790Z,93925.09
2017-10-05T11:42:45.173Z,93952.59
2017-10-05T11:45:13.537Z,93977.93
2017-10-05T11:47:42.128Z,93985.84
2017-10-05T11:50:10.477Z,93956.06
2017-10-05T11:52:38.934Z,93970.90
2017-10-05T11:55:07.302Z,93965.25
2017-10-05T11:57:35.675Z,93970.95
2017-10-05T12:00:04.015Z,93987.94
2017-10-05T12:02:32.384Z,93968.58
2017-10-05T12:05:00.723Z,94006.45
2017-10-05T12:07:29.067Z,93993.86
2017-10-05T12:09:57.450Z,93995.77
2017-10-05T12:12:25.971Z,94003.34
2017-10-05T12:14:54.305Z,94004.30
2017-10-05T12:17:22.690Z,94015.43
2017-10-05T12:19:51.023Z,94025.92
2017-10-05T12:22:19.500Z,94038.23
2017-10-05T12:24:47.862Z,94026.69
2017-10-05T12:27:16.216Z,94024.34
2017-10-05T12:29:44.546Z,94028.96
2017-10-05T12:32:12.930Z,94046.65
2017-10-05T12:34:41.475Z,94055.00
2017-10-05T12:37:09.818Z,94050.31
2017-10-05T12:39:38.249Z,94047.44
2017-10-05T12:42:06.592Z,94045.09
2017-10-05T12:44:34.965Z,94075.79
2017-10-05T12:47:04.046Z,94053.27
2017-10-05T12:49:32.510Z,94088.25
2017-10-05T12:52:01.682Z,94091.11
2017-10-05T12:54:30.067Z,94100.20
2017-10-05T12:56:58.397Z,94109.83
2017-10-05T12:59:26.775Z,94124.16
2017-10-05T13:01:55.114Z,94123.58
2017-10-05T13:04:23.470Z,94140.85
2017-10-05T13:06:51.826Z,94135.11
2017-10-05T13:09:20.173Z,94124.84
2017-10-05T13:11:48.563Z,94139.26
2017-10-05T13:14:16.903Z,94172.92
2017-10-05T13:16:45.272Z,94175.15
2017-10-05T13:19:13.734Z,94189.66
2017-10-05T13:21:42.077Z,94194.33
2017-10-05T13:24:10.557Z,94207.01
2017-10-05T13:26:38.887Z,94214.66
2017-10-05T13:29:07.248Z,94229.01
2017-10-05T13:31:36.358Z,94220.88
2017-10-05T13:34:04.901Z,94234.41
2017-10-05T13:36:33.234Z,94237.64
2017-10-05T13:39:01.567Z,94250.34
2017-10-05T13:41:29.914Z,94243.55
2017-10-05T13:44:03.942Z,94247.33
2017-10-05T13:46:32.387Z,94236.29
2017-10-05T13:49:01.182Z,94230.05
2017-10-05T13:51:29.545Z,94240.88
2017-10-05T13:53:57.917Z,94253.16
2017-10-05T13:56:26.495Z,94245.49
2017-10-05T13:58:54.833Z,94260.34
2017-10-05T14:01:23.208Z,94257.66
2017-10-05T14:03:51.544Z,94252.03
2017-10-05T14:06:19.897Z,94255.69
2017-10-05T14:08:48.258Z,94249.95
2017-10-05T14:11:16.603Z,94256.21
2017-10-05T14:13:45.011Z,94258.81
2017-10-05T14:16:13.370Z,94255.73
2017-10-05T14:18:41.710Z,94253.58
2017-10-05T14:21:10.086Z,94287.45
2017-10-05T14:23:38.450Z,94311.75
2017-10-05T14:26:06.848Z,94359.25
2017-10-05T14:28:35.326Z,94330.44
2017-10-05T14:31:03.677Z,94350.73
2017-10-05T14:33:32.058Z,94350.12
2017-10-05T14:36:00.436Z,94347.53
2017-10-05T14:38:28.770Z,94363.63
2017-10-05T14:40:57.149Z,94364.34
2017-10-05T14:43:25.501Z,94367.19
2017-10-05T14:45:53.897Z,94369.62
2017-10-05T14:48:22.432Z,94373.57
2017-10-05T14:50:50.769Z,94380.64
2017-10-05T14:53:19.259Z,94375.98
2017-10-05T14:55:47.950Z,94384.40
2017-10-05T14:58:16.351Z,94395.06
2017-10-05T15:00:44.714Z,94392.19
2017-10-05T15:03:13.055Z,94394.62
2017-10-05T15:05:41.427Z,94402.77
2017-10-05T15:08:09.763Z,94409.33
2017-10-05T15:10:38.238Z,94407.03
2017-10-05T15:13:06.578Z,94400.11
2017-10-05T15:15:34.922Z,94404.10
2017-10-05T15:18:03.364Z,94412.23
2017-10-05T15:20:31.719Z,94417.84
2017-10-05T15:23:00.213Z,94436.13
2017-10-05T15:25:28.582Z,94420.88
2017-10-05T15:27:56.953Z,94421.84
2017-10-05T15:30:25.301Z,94432.56
2017-10-05T15:32:53.643Z,94442.73
2017-10-05T15:35:22.031Z,94448.22
2017-10-05T15:37:50.569Z,94449.68
2017-10-05T15:40:18.910Z,94458.17
2017-10-05T15:42:47.318Z,94454.77
2017-10-05T15:45:15.665Z,94456.94
2017-10-05T15:47:44.026Z,94452.36
2017-10-05T15:50:12.366Z,94454.63
2017-10-05T15:52:40.843Z,94468.55
2017-10-05T15:55:09.267Z,94486.86
2017-10-05T15:57:37.751Z,94488.47
2017-10-05T16:00:06.166Z,94492.06
2017-10-05T16:02:34.566Z,94484.44
2017-10-05T16:05:02.931Z,94482.51
2017-10-05T16:07:31.331Z,94497.27
2017-10-05T16:09:59.687Z,94492.96
2017-10-05T16:12:28.179Z,94494.63
2017-10-05T16:14:56.582Z,94498.86
2017-10-05T16:17:24.916Z,94507.41
2017-10-05T16:19:53.300Z,94526.11
2017-10-05T16:22:21.638Z,94521.45
2017-10-05T16:24:50.001Z,94515.05
2017-10-05T16:27:18.395Z,94523.11
2017-10-05T16:29:46.750Z,94534.39
2017-10-05T16:32:15.122Z,94528.74
2017-10-05T16:34:43.636Z,94532.14
2017-10-05T16:37:12.016Z,94536.66
2017-10-05T16:39:40.374Z,94531.38
2017-10-05T16:42:08.730Z,94538.16
2017-10-05T16:44:37.140Z,94541.55
2017-10-05T16:47:05.473Z,94552.64
2017-10-05T16:49:33.823Z,94544.61
2017-10-05T16:52:02.307Z,94547.88
2017-10-05T16:54:30.689Z,94552.97
2017-10-05T16:56:59.039Z,94554.85
2017-10-05T16:59:27.517Z,94553.30
2017-10-05T17:01:55.891Z,94558.31
2017-10-05T17:04:24.253Z,94562.02
2017-10-05T17:06:52.582Z,94565.02
2017-10-05T17:09:20.951Z,94577.72
2017-10-05T17:11:49.326Z,94569.58
2017-10-05T17:14:17.697Z,94564.59
2017-10-05T17:16:46.043Z,94590.09
2017-10-05T17:19:14.385Z,94576.85
2017-10-05T17:21:42.757Z,94591.34
2017-10-05T17:24:11.102Z,94595.63
2017-10-05T17:26:39.576Z,94591.52
2017-10-05T17:29:07.927Z,94602.03
2017-10-05T17:31:36.271Z,94609.42
2017-10-05T17:34:04.884Z,94606.53
2017-10-05T17:36:33.230Z,94610.22
2017-10-05T17:39:01.627Z,94610.89
2017-10-05T17:41:29.962Z,94607.20
2017-10-05T17:43:59.482Z,94609.09
2017-10-05T17:46:27.895Z,94617.58
2017-10-05T17:48:56.234Z,94612.34
2017-10-05T17:51:24.582Z,94618.73
2017-10-05T17:53:52.958Z,94617.58
2017-10-05T17:56:21.326Z,94628.64
2017-10-05T17:58:49.728Z,94620.50
2017-10-05T18:01:18.071Z,94629.55
2017-10-05T18:03:47.281Z,94629.94
2017-10-05T18:06:15.670Z,94619.69
2017-10-05T18:08:44.017Z,94627.83
2017-10-05T18:11:12.508Z,94632.22
2017-10-05T18:13:40.859Z,94622.24
2017-10-05T18:16:09.203Z,94626.53
2017-10-05T18:18:37.580Z,94631.48
2017-10-05T18:21:05.943Z,94650.92
2017-10-05T18:23:34.545Z,94654.70
2017-10-05T18:26:03.067Z,94657.81
2017-10-05T18:28:31.529Z,94656.01
2017-10-05T18:30:59.890Z,94661.80
2017-10-05T18:33:28.254Z,94660.80
2017-10-05T18:35:56.718Z,94672.84
2017-10-05T18:38:25.051Z,94670.90
2017-10-05T18:40:53.404Z,94670.15
2017-10-05T18:43:21.750Z,94668.58
2017-10-05T18:45:50.127Z,94676.96
2017-10-05T18:48:18.471Z,94667.02
2017-10-05T18:50:46.951Z,94673.48
2017-10-05T18:53:15.292Z,94663.88
2017-10-05T18:55:43.636Z,94668.39
2017-10-05T18:58:11.982Z,94665.92
2017-10-05T19:00:40.351Z,94672.30
2017-10-05T19:03:08.729Z,94669.59
2017-10-05T19:05:37.108Z,94667.73
2017-10-05T19:08:05.558Z,94674.64
2017-10-05T19:10:33.928Z,94665.72
2017-10-05T19:13:02.405Z,94668.31
2017-10-05T19:15:30.784Z,94673.85
2017-10-05T19:17:59.159Z,94661.45
2017-10-05T19:20:27.552Z,94665.94
2017-10-05T19:22:57.322Z,94653.67
2017-10-05T19:25:25.699Z,94658.57
2017-10-05T19:27:54.071Z,94671.80
2017-10-05T19:30:22.460Z,94668.95
2017-10-05T19:32:50.847Z,94669.47
2017-10-05T19:35:19.227Z,94676.72
2017-10-05T19:37:47.611Z,94677.78
2017-10-05T19:40:15.999Z,94681.27
2017-10-05T19:42:44.376Z,94691.99
2017-10-05T19:45:12.787Z,94692.66
2017-10-05T19:47:41.207Z,94684.88
2017-10-05T19:50:09.548Z,94687.75
2017-10-05T19:52:37.973Z,94688.89
2017-10-05T19:55:06.388Z,94686.54
2017-10-05T19:57:34.768Z,94687.03
2017-10-05T20:00:03.139Z,94681.72
2017-10-05T20:02:31.516Z,94683.83
2017-10-05T20:04:59.891Z,94668.80
2017-10-05T20:07:28.390Z,94676.95
2017-10-05T20:09:56.775Z,94672.99
2017-10-05T20:12:25.158Z,94672.30
2017-10-05T20:14:53.530Z,94677.62
2017-10-05T20:17:34.729Z,94677.95
2017-10-05T20:20:09.024Z,94673.20
2017-10-05T20:22:42.979Z,94671.50
2017-10-05T20:25:17.736Z,94666.58
2017-10-05T20:27:51.575Z,94671.02
2017-10-05T20:30:24.443Z,94675.96
2017-10-05T20:35:47.834Z,94678.91
2017-10-05T20:38:16.178Z,94670.98
2017-10-05T20:40:44.562Z,94672.44
2017-10-05T20:43:12.910Z,94687.20
2017-10-05T20:45:41.258Z,94678.12
2017-10-05T20:48:09.783Z,94695.22
2017-10-05T20:50:38.134Z,94689.94
2017-10-05T20:53:06.478Z,94700.94
2017-10-05T20:55:34.827Z,94691.72
2017-10-05T20:58:03.575Z,94701.22
2017-10-05T21:00:31.931Z,94712.69
2017-10-05T21:03:00.300Z,94702.35
2017-10-05T21:05:28.653Z,94712.89
2017-10-05T21:07:56.992Z,94705.05
2017-10-05T21:10:25.351Z,94712.28
2017-10-05T21:12:53.690Z,94716.73
2017-10-05T21:15:22.035Z,94723.25
2017-10-05T21:17:50.387Z,94716.34
2017-10-05T21:20:18.743Z,94723.36
2017-10-05T21:22:47.079Z,94720.27
2017-10-05T21:25:15.460Z,94726.25
2017-10-05T21:27:43.799Z,94739.00
2017-10-05T21:30:12.157Z,94729.06
2017-10-05T21:32:40.631Z,94719.41
2017-10-05T21:35:08.975Z,94721.70
2017-10-05T21:37:37.323Z,94722.86
2017-10-05T21:40:05.675Z,94717.55
2017-10-05T21:42:34.016Z,94724.83
2017-10-05T21:45:02.439Z,94729.33
2017-10-05T21:47:30.787Z,94729.13
2017-10-05T21:49:59.158Z,94726.19
2017-10-05T21:52:27.507Z,94725.30
2017-10-05T21:54:55.903Z,94727.27
2017-10-05T21:57:24.253Z,94714.94
2017-10-05T21:59:52.609Z,94727.86
2017-10-05T22:02:20.954Z,94726.23
2017-10-05T22:04:49.307Z,94729.33
2017-10-05T22:07:17.803Z,94717.30
2017-10-05T22:09:46.155Z,94719.05
2017-10-05T22:12:14.521Z,94714.09
2017-10-05T22:14:42.950Z,94708.88
2017-10-05T22:17:11.303Z,94703.33
2017-10-05T22:19:39.647Z,94710.70
2017-10-05T22:22:08.060Z,94715.41
2017-10-05T22:24:36.418Z,94713.45
2017-10-05T22:27:04.764Z,94715.02
2017-10-05T22:29:33.099Z,94711.24
2017-10-05T22:32:01.455Z,94709.77
2017-10-05T22:34:29.821Z,94720.20
2017-10-05T22:36:58.181Z,94710.62
2017-10-05T22:39:26.527Z,94704.27
2017-10-05T22:41:54.874Z,94717.41
2017-10-05T22:44:23.229Z,94703.44
2017-10-05T22:46:51.574Z,94707.78
2017-10-05T22:49:19.959Z,94708.11
2017-10-05T22:51:48.315Z,94706.41
2017-10-05T22:54:16.664Z,94708.83
2017-10-05T22:56:45.010Z,94710.19
2017-10-05T22:59:13.348Z,94692.03
2017-10-05T23:01:41.698Z,94704.20
2017-10-05T23:04:10.064Z,94698.89
2017-10-05T23:06:38.431Z,94702.59
2017-10-05T23:09:06.815Z,94708.30
2017-10-05T23:11:35.189Z,94704.88
2017-10-05T23:14:03.577Z,94702.02
2017-10-05T23:16:31.911Z,94703.47
2017-10-05T23:19:00.256Z,94715.52
2017-10-05T23:21:28.630Z,94710.87
2017-10-05T23:23:56.982Z,94711.03
2017-10-05T23:26:25.363Z,94709.30
2017-10-05T23:28:53.705Z,94718.69
2017-10-05T23:31:22.051Z,94709.66
2017-10-05T23:33:50.406Z,94713.98
2017-10-05T23:36:18.744Z,94712.93
2017-10-05T23:38:47.106Z,94717.69
2017-10-05T23:41:15.453Z,94718.02
2017-10-05T23:43:43.832Z,94720.81
2017-10-05T23:46:12.184Z,94747.44
2017-10-05T23:48:40.555Z,94727.49
2017-10-05T23:51:08.912Z,94720.80
2017-10-05T23:53:37.418Z,94725.42
2017-10-05T23:56:05.768Z,94722.11
2017-10-05T23:58:34.110Z,94738.41
